Time;durP1;ratioP1;P1;durP2;ratioP2;P2;SDS_P1;SDS_P2;PMS_P1;PMS_P2;Temp;Humidity;BMP_temperature;BMP_pressure;BME280_temperature;BME280_humidity;BME280_pressure;Samples;Min_cycle;Max_cycle;Signal;HPM_P1;HPM_P2
2023/01/26 00:02:14;;;;;;;20.85;14.07;;;;;;;;;;4972927;28;20050;-85
2023/01/26 00:04:44;;;;;;;22.75;17.58;;;;;;;;;;4986363;28;20049;-85
2023/01/26 00:07:15;;;;;;;21.27;13.60;;;;;;;;;;4960773;28;20057;-85
2023/01/26 00:09:44;;;;;;;19.20;15.10;;;;;;;;;;4985524;28;20053;-85
2023/01/26 00:12:12;;;;;;;21.70;12.73;;;;;;;;;;4966786;28;20057;-85
2023/01/26 00:14:51;;;;;;;22.92;17.02;;;;;;;;;;4955765;28;20058;-85
2023/01/26 00:17:25;;;;;;;18.63;11.82;;;;;;;;;;4950856;28;20046;-85
2023/01/26 00:19:56;;;;;;;20.77;14.90;;;;;;;;;;4984425;28;20058;-85
2023/01/26 00:22:25;;;;;;;19.42;13.77;;;;;;;;;;4988035;28;20069;-85
2023/01/26 00:24:55;;;;;;;25.90;13.95;;;;;;;;;;4954139;28;20085;-85
2023/01/26 00:27:24;;;;;;;16.98;12.02;;;;;;;;;;4978453;28;20402;-85
2023/01/26 00:29:52;;;;;;;20.83;15.93;;;;;;;;;;4965664;28;20051;-85
2023/01/26 00:32:22;;;;;;;18.77;10.50;;;;;;;;;;4969097;28;20057;-85
2023/01/26 00:34:49;;;;;;;18.98;12.15;;;;;;;;;;4986383;28;20051;-85
2023/01/26 00:37:18;;;;;;;16.63;11.82;;;;;;;;;;4972272;28;20055;-85
2023/01/26 00:39:49;;;;;;;18.92;11.40;;;;;;;;;;4968201;28;20425;-85
2023/01/26 00:42:20;;;;;;;21.70;12.40;;;;;;;;;;4989373;28;20051;-85
2023/01/26 00:44:47;;;;;;;20.20;15.35;;;;;;;;;;4986242;28;20057;-85
2023/01/26 00:47:15;;;;;;;22.25;14.70;;;;;;;;;;4969242;28;20417;-85
2023/01/26 00:49:42;;;;;;;20.42;12.88;;;;;;;;;;4957217;28;20081;-85
2023/01/26 00:52:10;;;;;;;22.75;12.90;;;;;;;;;;4959255;28;20420;-85
2023/01/26 00:54:39;;;;;;;16.52;11.70;;;;;;;;;;4988147;28;20061;-84
2023/01/26 00:57:10;;;;;;;18.15;12.30;;;;;;;;;;4974313;28;20584;-85
2023/01/26 00:59:40;;;;;;;16.95;12.38;;;;;;;;;;4973982;28;20047;-85
2023/01/26 01:02:09;;;;;;;19.60;11.57;;;;;;;;;;4977940;28;20065;-85
2023/01/26 01:04:36;;;;;;;21.63;14.32;;;;;;;;;;4955478;28;20053;-85
2023/01/26 01:07:04;;;;;;;23.63;14.15;;;;;;;;;;4991548;28;20053;-86
2023/01/26 01:09:32;;;;;;;22.85;13.52;;;;;;;;;;4970478;28;20058;-85
2023/01/26 01:12:00;;;;;;;19.60;14.02;;;;;;;;;;4973973;28;20054;-85
2023/01/26 01:14:31;;;;;;;25.98;13.25;;;;;;;;;;4991270;28;20530;-85
2023/01/26 01:17:01;;;;;;;21.70;14.98;;;;;;;;;;4973711;28;20493;-85
2023/01/26 01:19:30;;;;;;;20.10;14.80;;;;;;;;;;4958851;28;20501;-85
2023/01/26 01:22:00;;;;;;;18.52;12.57;;;;;;;;;;4976810;28;20080;-85
2023/01/26 01:24:29;;;;;;;19.42;12.15;;;;;;;;;;4975588;28;20061;-84
2023/01/26 01:26:57;;;;;;;21.40;14.68;;;;;;;;;;4974135;28;20420;-84
2023/01/26 01:29:26;;;;;;;16.98;12.68;;;;;;;;;;4974524;28;20057;-85
2023/01/26 01:31:57;;;;;;;16.13;11.02;;;;;;;;;;4973824;28;20531;-85
2023/01/26 01:34:26;;;;;;;16.88;13.43;;;;;;;;;;4971441;28;20069;-85
2023/01/26 01:36:56;;;;;;;21.42;12.50;;;;;;;;;;4971256;28;20054;-85
2023/01/26 01:39:26;;;;;;;19.40;14.68;;;;;;;;;;4986760;28;20512;-84
2023/01/26 01:41:53;;;;;;;15.88;11.88;;;;;;;;;;4991810;28;20058;-84
2023/01/26 01:44:22;;;;;;;18.35;13.07;;;;;;;;;;4992046;28;20377;-84
2023/01/26 01:46:53;;;;;;;22.63;14.00;;;;;;;;;;4988527;28;20577;-84
2023/01/26 01:49:26;;;;;;;19.88;14.57;;;;;;;;;;4987389;28;20074;-84
2023/01/26 01:51:58;;;;;;;20.83;12.25;;;;;;;;;;4980321;28;20058;-84
2023/01/26 01:54:32;;;;;;;19.67;15.00;;;;;;;;;;4971263;28;20057;-84
2023/01/26 01:57:03;;;;;;;19.83;14.48;;;;;;;;;;4965806;28;20073;-84
2023/01/26 01:59:33;;;;;;;13.20;10.13;;;;;;;;;;4969955;28;20047;-84
2023/01/26 02:02:05;;;;;;;18.48;12.73;;;;;;;;;;4975991;28;20493;-84
2023/01/26 02:04:36;;;;;;;18.83;11.82;;;;;;;;;;4971509;28;20051;-84
2023/01/26 02:07:07;;;;;;;17.75;12.23;;;;;;;;;;4956080;28;20054;-85
2023/01/26 02:12:30;;;;;;;17.60;10.60;;;;;;;;;;4987888;28;20046;-84
2023/01/26 02:15:00;;;;;;;20.35;11.90;;;;;;;;;;4974650;28;20065;-84
2023/01/26 02:17:27;;;;;;;22.33;12.02;;;;;;;;;;4992642;28;20060;-84
2023/01/26 02:20:03;;;;;;;14.75;10.30;;;;;;;;;;4971769;28;20066;-84
2023/01/26 02:22:40;;;;;;;18.02;13.75;;;;;;;;;;4955607;28;20053;-84
2023/01/26 02:25:21;;;;;;;22.23;13.00;;;;;;;;;;4973076;28;20061;-84
2023/01/26 02:27:51;;;;;;;17.80;12.40;;;;;;;;;;4988734;28;20058;-83
2023/01/26 02:30:22;;;;;;;14.77;10.23;;;;;;;;;;4957082;28;20079;-84
2023/01/26 02:32:52;;;;;;;19.27;14.57;;;;;;;;;;4970465;28;20046;-84
2023/01/26 02:35:22;;;;;;;18.77;12.60;;;;;;;;;;4981872;28;20037;-84
2023/01/26 02:37:53;;;;;;;20.65;12.65;;;;;;;;;;4957625;28;20535;-84
2023/01/26 02:40:26;;;;;;;19.27;12.32;;;;;;;;;;4985074;28;20050;-84
2023/01/26 02:42:54;;;;;;;19.98;11.70;;;;;;;;;;4982864;28;20056;-84
2023/01/26 02:45:23;;;;;;;13.32;11.93;;;;;;;;;;4950629;28;20057;-84
2023/01/26 02:47:51;;;;;;;21.40;12.50;;;;;;;;;;4972523;28;20421;-84
2023/01/26 02:50:18;;;;;;;17.92;11.73;;;;;;;;;;4964250;28;20038;-84
2023/01/26 02:52:46;;;;;;;20.42;14.23;;;;;;;;;;4972128;28;20050;-84
2023/01/26 02:55:24;;;;;;;19.98;11.65;;;;;;;;;;4951278;28;20050;-85
2023/01/26 02:57:56;;;;;;;21.98;13.52;;;;;;;;;;4972775;28;20057;-84
2023/01/26 03:00:27;;;;;;;19.23;13.68;;;;;;;;;;4986002;28;20058;-84
2023/01/26 03:02:57;;;;;;;19.00;12.05;;;;;;;;;;4952786;28;20051;-85
2023/01/26 03:05:27;;;;;;;22.55;13.40;;;;;;;;;;4971317;28;20044;-84
2023/01/26 03:07:55;;;;;;;15.88;12.20;;;;;;;;;;4973383;28;20053;-85
2023/01/26 03:10:26;;;;;;;19.98;13.43;;;;;;;;;;4978487;28;20061;-85
2023/01/26 03:12:59;;;;;;;21.20;13.23;;;;;;;;;;4974820;28;20053;-85
2023/01/26 03:15:46;;;;;;;19.38;12.40;;;;;;;;;;4958039;28;20061;-85
2023/01/26 03:29:30;;;;;;;19.15;12.02;;;;;;;;;;4968422;28;20042;-86
2023/01/26 03:32:02;;;;;;;20.95;10.85;;;;;;;;;;4970653;28;20061;-85
2023/01/26 03:34:29;;;;;;;17.20;12.25;;;;;;;;;;4970882;28;20054;-86
2023/01/26 03:36:57;;;;;;;18.15;11.25;;;;;;;;;;4954408;28;20062;-85
2023/01/26 03:56:20;;;;;;;19.92;12.23;;;;;;;;;;4970122;28;20046;-85
2023/01/26 03:58:50;;;;;;;17.63;13.10;;;;;;;;;;4985247;28;20046;-86
2023/01/26 04:01:26;;;;;;;17.27;11.55;;;;;;;;;;4995252;22;20057;-84
2023/01/26 04:09:33;;;;;;;17.98;12.45;;;;;;;;;;5002384;28;20049;-84
2023/01/26 04:12:00;;;;;;;17.13;12.57;;;;;;;;;;4981131;28;20049;-84
2023/01/26 04:22:46;;;;;;;21.02;13.02;;;;;;;;;;4976927;28;20417;-82
2023/01/26 04:25:17;;;;;;;18.73;11.90;;;;;;;;;;4988726;28;20046;-81
2023/01/26 04:27:47;;;;;;;21.70;12.43;;;;;;;;;;4991705;28;20050;-82
2023/01/26 04:30:16;;;;;;;16.13;12.27;;;;;;;;;;4986952;28;20054;-81
2023/01/26 04:32:45;;;;;;;19.95;11.88;;;;;;;;;;4984099;28;20047;-81
2023/01/26 04:35:13;;;;;;;16.88;12.15;;;;;;;;;;4979183;28;20054;-81
2023/01/26 04:37:42;;;;;;;15.45;11.23;;;;;;;;;;4982285;28;20058;-81
2023/01/26 04:40:14;;;;;;;15.82;11.60;;;;;;;;;;4985753;28;20069;-82
2023/01/26 04:42:44;;;;;;;15.02;11.00;;;;;;;;;;4992316;28;20046;-81
2023/01/26 04:45:14;;;;;;;15.73;10.52;;;;;;;;;;4983646;28;20408;-82
2023/01/26 04:47:42;;;;;;;21.20;11.38;;;;;;;;;;4974564;28;20058;-82
2023/01/26 04:50:11;;;;;;;21.45;13.57;;;;;;;;;;4978759;28;20419;-83
2023/01/26 04:52:38;;;;;;;20.45;13.50;;;;;;;;;;4984922;28;20057;-82
2023/01/26 04:55:06;;;;;;;22.85;13.48;;;;;;;;;;4988260;28;20045;-82
2023/01/26 04:57:34;;;;;;;21.88;13.55;;;;;;;;;;4988198;28;20051;-84
2023/01/26 05:00:04;;;;;;;21.65;14.68;;;;;;;;;;4984675;28;20081;-84
2023/01/26 05:02:32;;;;;;;18.83;14.07;;;;;;;;;;4982462;28;20053;-84
2023/01/26 05:05:02;;;;;;;17.30;13.73;;;;;;;;;;4965968;28;20520;-84
2023/01/26 05:07:31;;;;;;;21.70;15.20;;;;;;;;;;4998516;28;20054;-84
2023/01/26 05:10:01;;;;;;;21.13;13.40;;;;;;;;;;4986752;28;20061;-84
2023/01/26 05:12:54;;;;;;;27.73;15.10;;;;;;;;;;5001256;28;20045;-85
2023/01/26 05:15:21;;;;;;;26.58;18.20;;;;;;;;;;4987730;28;20070;-85
2023/01/26 05:18:15;;;;;;;24.25;17.15;;;;;;;;;;4985888;28;20045;-82
2023/01/26 05:21:04;;;;;;;26.08;17.98;;;;;;;;;;4971796;28;20057;-82
2023/01/26 05:23:41;;;;;;;27.35;18.90;;;;;;;;;;4985210;28;20061;-82
2023/01/26 05:26:47;;;;;;;31.75;18.63;;;;;;;;;;4983651;28;20061;-82
2023/01/26 05:29:20;;;;;;;28.83;18.65;;;;;;;;;;4953106;28;20146;-81
2023/01/26 05:31:47;;;;;;;27.55;17.73;;;;;;;;;;4975717;28;20054;-82
2023/01/26 05:34:20;;;;;;;28.67;18.35;;;;;;;;;;4970137;28;20065;-82
2023/01/26 05:36:50;;;;;;;27.63;17.50;;;;;;;;;;4988518;28;20053;-82
2023/01/26 05:39:19;;;;;;;24.95;19.75;;;;;;;;;;4992620;28;20046;-83
2023/01/26 05:41:51;;;;;;;23.52;17.65;;;;;;;;;;4990674;28;20397;-82
2023/01/26 05:44:18;;;;;;;27.10;18.83;;;;;;;;;;4988373;28;20065;-82
2023/01/26 05:46:54;;;;;;;26.27;18.23;;;;;;;;;;4974248;28;20065;-82
2023/01/26 05:49:22;;;;;;;26.50;17.73;;;;;;;;;;4990737;28;20053;-82
2023/01/26 05:51:51;;;;;;;22.05;16.63;;;;;;;;;;4988036;28;20046;-82
2023/01/26 05:54:19;;;;;;;30.95;19.10;;;;;;;;;;4987408;28;20047;-82
2023/01/26 05:56:50;;;;;;;24.90;18.70;;;;;;;;;;4982734;28;20047;-82
2023/01/26 05:59:20;;;;;;;31.13;21.92;;;;;;;;;;4990582;28;20047;-83
2023/01/26 06:01:50;;;;;;;26.98;17.42;;;;;;;;;;4988067;28;20050;-82
2023/01/26 06:04:20;;;;;;;25.60;17.52;;;;;;;;;;4984161;28;20054;-84
2023/01/26 06:06:53;;;;;;;28.85;18.92;;;;;;;;;;4985449;28;20058;-85
2023/01/26 06:09:24;;;;;;;26.27;17.83;;;;;;;;;;4982169;28;20061;-85
2023/01/26 06:12:34;;;;;;;23.58;16.63;;;;;;;;;;4972246;28;20070;-84
2023/01/26 06:15:19;;;;;;;29.23;15.73;;;;;;;;;;4976372;28;20054;-84
2023/01/26 06:17:48;;;;;;;30.45;20.23;;;;;;;;;;4958287;28;20074;-82
2023/01/26 06:20:17;;;;;;;31.85;20.00;;;;;;;;;;4978822;28;20049;-81
2023/01/26 06:22:59;;;;;;;29.40;20.45;;;;;;;;;;4960777;28;20053;-82
2023/01/26 06:25:28;;;;;;;29.13;22.40;;;;;;;;;;4976332;28;20038;-82
2023/01/26 06:27:57;;;;;;;28.63;18.50;;;;;;;;;;4989332;28;20042;-82
2023/01/26 06:30:27;;;;;;;30.35;20.70;;;;;;;;;;4989684;28;20049;-82
2023/01/26 06:32:58;;;;;;;31.55;19.25;;;;;;;;;;4990253;28;21001;-82
2023/01/26 06:35:26;;;;;;;28.10;18.70;;;;;;;;;;4997886;28;20053;-82
2023/01/26 06:37:55;;;;;;;27.85;19.27;;;;;;;;;;4988645;28;20059;-83
2023/01/26 06:40:23;;;;;;;29.67;20.38;;;;;;;;;;4987949;28;20058;-82
2023/01/26 06:42:52;;;;;;;23.15;14.82;;;;;;;;;;4985885;28;20404;-82
2023/01/26 06:45:20;;;;;;;26.00;18.20;;;;;;;;;;4988692;28;20057;-83
2023/01/26 06:47:50;;;;;;;23.95;17.00;;;;;;;;;;4984533;28;20062;-83
2023/01/26 06:50:19;;;;;;;24.58;16.42;;;;;;;;;;4960947;28;20485;-83
2023/01/26 06:52:55;;;;;;;28.15;17.05;;;;;;;;;;4982144;28;20050;-83
2023/01/26 06:55:50;;;;;;;24.13;17.05;;;;;;;;;;4964860;28;20523;-84
2023/01/26 06:58:45;;;;;;;31.08;17.70;;;;;;;;;;4983194;28;20046;-83
2023/01/26 11:27:42;;;;;;;8.15;5.75;;;;;;;;;;5927884;24;20355;-85
2023/01/26 11:34:42;;;;;;;11.45;7.32;;;;;;;;;;5932355;23;20031;-81
2023/01/26 13:49:34;;;;;;;12.75;10.05;;;;;;;;;;5984543;24;20043;-84
2023/01/26 13:52:03;;;;;;;15.80;11.63;;;;;;;;;;6015702;23;20523;-85
2023/01/26 13:54:33;;;;;;;19.25;12.05;;;;;;;;;;6140129;22;20455;-87
2023/01/26 13:57:02;;;;;;;14.25;12.75;;;;;;;;;;6249815;23;20012;-85
2023/01/26 13:59:31;;;;;;;17.27;12.20;;;;;;;;;;6213269;23;20024;-83
2023/01/26 14:02:11;;;;;;;14.48;10.55;;;;;;;;;;6241146;23;20012;-85
2023/01/26 14:04:51;;;;;;;14.43;10.75;;;;;;;;;;6241282;23;20027;-85
2023/01/26 14:07:22;;;;;;;16.13;11.35;;;;;;;;;;6216624;23;20012;-85
2023/01/26 14:09:50;;;;;;;19.13;11.70;;;;;;;;;;6251604;23;20012;-85
2023/01/26 14:12:23;;;;;;;13.52;9.45;;;;;;;;;;6216690;23;20035;-85
2023/01/26 14:14:55;;;;;;;16.38;9.85;;;;;;;;;;6215928;23;20028;-85
2023/01/26 14:17:27;;;;;;;13.38;9.45;;;;;;;;;;6242283;23;20008;-84
2023/01/26 14:19:55;;;;;;;17.05;12.75;;;;;;;;;;6214912;23;20023;-84
2023/01/26 14:22:25;;;;;;;14.50;11.32;;;;;;;;;;6241774;23;20016;-85
2023/01/26 14:24:57;;;;;;;15.45;12.38;;;;;;;;;;6251916;23;20566;-85
2023/01/26 14:27:30;;;;;;;10.90;9.50;;;;;;;;;;6240753;23;20475;-85
2023/01/26 14:29:58;;;;;;;11.82;9.15;;;;;;;;;;6240859;23;20034;-85
2023/01/26 14:32:28;;;;;;;16.02;13.55;;;;;;;;;;6242052;23;20023;-85
2023/01/26 14:34:57;;;;;;;15.63;11.52;;;;;;;;;;6242225;23;20012;-85
2023/01/26 14:37:26;;;;;;;17.77;11.43;;;;;;;;;;6243568;23;20035;-85
2023/01/26 14:40:12;;;;;;;15.40;10.98;;;;;;;;;;6240434;23;20033;-84
2023/01/26 14:42:40;;;;;;;17.20;13.60;;;;;;;;;;6242327;23;20012;-84
2023/01/26 14:45:11;;;;;;;19.17;13.18;;;;;;;;;;6239144;23;20016;-85
2023/01/26 14:47:40;;;;;;;17.05;12.60;;;;;;;;;;6252591;23;20012;-84
2023/01/26 14:50:23;;;;;;;14.60;11.85;;;;;;;;;;6250303;23;20019;-84
2023/01/26 14:52:54;;;;;;;15.43;11.68;;;;;;;;;;6241126;23;20023;-85
2023/01/26 14:55:26;;;;;;;16.70;12.35;;;;;;;;;;6241613;23;20368;-85
2023/01/26 14:57:57;;;;;;;18.42;13.82;;;;;;;;;;6214076;23;20479;-84
2023/01/26 15:00:28;;;;;;;15.27;11.98;;;;;;;;;;6215808;23;20016;-84
2023/01/26 15:02:59;;;;;;;17.92;12.82;;;;;;;;;;6253687;23;20019;-84
2023/01/26 15:05:32;;;;;;;19.02;14.68;;;;;;;;;;6216077;23;20020;-84
2023/01/26 15:08:03;;;;;;;19.75;13.40;;;;;;;;;;6251589;23;20008;-85
2023/01/26 15:10:36;;;;;;;19.40;13.90;;;;;;;;;;6215553;23;20024;-85
2023/01/26 15:13:07;;;;;;;16.20;12.48;;;;;;;;;;6242498;23;20012;-85
2023/01/26 15:15:38;;;;;;;18.77;12.70;;;;;;;;;;6240248;23;20138;-85
2023/01/26 15:18:18;;;;;;;14.82;10.18;;;;;;;;;;6244223;23;20333;-85
2023/01/26 15:20:59;;;;;;;17.33;11.70;;;;;;;;;;6214982;23;20465;-85
2023/01/26 15:23:29;;;;;;;16.73;12.35;;;;;;;;;;6253612;23;20012;-84
2023/01/26 15:26:04;;;;;;;15.63;12.52;;;;;;;;;;6240728;23;20516;-84
2023/01/26 15:28:37;;;;;;;19.55;13.68;;;;;;;;;;6240992;23;20352;-84
2023/01/26 15:31:07;;;;;;;16.13;12.98;;;;;;;;;;6239335;23;20035;-84
2023/01/26 15:33:45;;;;;;;18.08;10.35;;;;;;;;;;6252499;23;20019;-85
2023/01/26 15:36:27;;;;;;;19.25;13.38;;;;;;;;;;6215636;23;20016;-85
2023/01/26 15:39:09;;;;;;;17.52;14.18;;;;;;;;;;6241468;23;20020;-83
2023/01/26 15:41:39;;;;;;;14.48;10.52;;;;;;;;;;6241131;23;20020;-84
2023/01/26 15:44:12;;;;;;;16.58;13.45;;;;;;;;;;6217119;23;20361;-83
2023/01/26 15:46:45;;;;;;;15.98;12.93;;;;;;;;;;6252719;23;20030;-83
2023/01/26 15:49:12;;;;;;;15.00;13.00;;;;;;;;;;6240196;23;20352;-84
2023/01/26 15:51:42;;;;;;;15.77;11.40;;;;;;;;;;6216527;23;20471;-84
2023/01/26 15:54:15;;;;;;;13.30;10.27;;;;;;;;;;6218396;23;20024;-84
2023/01/26 15:56:43;;;;;;;18.38;12.40;;;;;;;;;;6241053;23;20012;-84
2023/01/26 15:59:12;;;;;;;14.95;11.80;;;;;;;;;;6215674;23;20460;-85
2023/01/26 16:01:42;;;;;;;13.60;11.52;;;;;;;;;;6217917;22;20452;-83
2023/01/26 16:04:13;;;;;;;16.23;10.75;;;;;;;;;;6245749;23;20035;-82
2023/01/26 16:06:40;;;;;;;18.35;13.27;;;;;;;;;;6242143;23;20020;-83
2023/01/26 16:09:08;;;;;;;15.50;12.27;;;;;;;;;;6217038;23;20024;-83
2023/01/26 16:11:44;;;;;;;14.35;12.75;;;;;;;;;;6244851;23;20416;-82
2023/01/26 16:14:14;;;;;;;13.57;10.13;;;;;;;;;;6255436;23;20093;-82
2023/01/26 16:16:41;;;;;;;13.82;10.15;;;;;;;;;;6243729;23;20027;-82
2023/01/26 16:19:13;;;;;;;15.10;9.63;;;;;;;;;;6216222;23;20016;-82
2023/01/26 16:21:44;;;;;;;14.80;11.13;;;;;;;;;;6242796;23;20020;-82
2023/01/26 16:24:11;;;;;;;13.35;10.70;;;;;;;;;;6245379;23;20659;-81
2023/01/26 16:26:39;;;;;;;15.80;11.23;;;;;;;;;;6254714;23;20019;-82
2023/01/26 16:29:09;;;;;;;18.65;12.02;;;;;;;;;;6242607;23;20017;-82
2023/01/26 16:31:36;;;;;;;16.60;10.13;;;;;;;;;;6242896;23;20012;-82
2023/01/26 16:34:06;;;;;;;13.40;10.95;;;;;;;;;;6218641;23;20031;-82
2023/01/26 16:36:33;;;;;;;17.52;12.35;;;;;;;;;;6242743;23;20348;-82
2023/01/26 16:39:00;;;;;;;15.85;11.68;;;;;;;;;;6215497;23;20263;-81
2023/01/26 16:41:28;;;;;;;17.25;12.02;;;;;;;;;;6245340;23;20013;-82
2023/01/26 16:43:58;;;;;;;16.05;12.75;;;;;;;;;;6245393;23;20028;-82
2023/01/26 16:46:26;;;;;;;13.15;11.63;;;;;;;;;;6243788;23;20012;-81
2023/01/26 16:48:53;;;;;;;10.63;8.18;;;;;;;;;;6243661;23;20016;-82
2023/01/26 16:51:24;;;;;;;11.20;7.93;;;;;;;;;;6243878;23;20016;-82
2023/01/26 16:53:52;;;;;;;13.65;9.65;;;;;;;;;;6246336;23;20031;-82
2023/01/26 16:56:23;;;;;;;10.13;7.93;;;;;;;;;;6257177;23;20035;-81
2023/01/26 16:58:50;;;;;;;10.07;8.85;;;;;;;;;;6247684;23;20337;-81
2023/01/26 17:01:21;;;;;;;10.15;7.63;;;;;;;;;;6268121;22;20020;-81
2023/01/26 17:03:49;;;;;;;15.75;9.93;;;;;;;;;;6312100;22;20055;-81
2023/01/26 17:06:17;;;;;;;8.65;6.85;;;;;;;;;;6294524;22;20012;-81
2023/01/26 17:08:47;;;;;;;9.70;7.75;;;;;;;;;;6274312;22;20020;-82
2023/01/26 17:11:17;;;;;;;10.70;8.27;;;;;;;;;;6274173;22;20023;-82
2023/01/26 17:13:47;;;;;;;10.05;9.05;;;;;;;;;;6246028;22;20030;-82
2023/01/26 17:16:16;;;;;;;11.45;8.85;;;;;;;;;;6244697;22;20026;-82
2023/01/26 17:18:47;;;;;;;13.38;8.15;;;;;;;;;;6284281;22;20012;-81
2023/01/26 17:21:16;;;;;;;11.90;8.80;;;;;;;;;;6279748;22;20019;-82
2023/01/26 17:23:48;;;;;;;13.10;10.38;;;;;;;;;;6271969;22;20364;-82
2023/01/26 17:26:19;;;;;;;10.18;9.13;;;;;;;;;;6282280;22;20034;-82
2023/01/26 17:28:49;;;;;;;13.63;8.90;;;;;;;;;;6273341;22;20012;-79
2023/01/26 17:31:19;;;;;;;14.32;8.70;;;;;;;;;;6270022;22;20030;-81
2023/01/26 17:33:49;;;;;;;13.25;8.13;;;;;;;;;;6272600;22;20008;-80
2023/01/26 17:36:20;;;;;;;13.93;9.07;;;;;;;;;;6269550;22;20038;-79
2023/01/26 17:38:50;;;;;;;11.82;9.77;;;;;;;;;;6271409;22;20049;-80
2023/01/26 17:41:17;;;;;;;10.95;9.07;;;;;;;;;;6269996;22;20020;-80
2023/01/26 17:43:44;;;;;;;11.40;9.45;;;;;;;;;;6274614;22;20008;-80
2023/01/26 17:46:13;;;;;;;12.15;10.73;;;;;;;;;;6269530;22;20147;-80
2023/01/26 17:48:42;;;;;;;13.35;9.80;;;;;;;;;;6272659;22;20011;-80
2023/01/26 17:51:13;;;;;;;13.98;9.65;;;;;;;;;;6273870;22;20012;-80
2023/01/26 17:53:41;;;;;;;14.45;10.18;;;;;;;;;;6273327;22;20015;-81
2023/01/26 17:56:09;;;;;;;13.65;10.60;;;;;;;;;;6273213;22;20031;-80
2023/01/26 17:58:37;;;;;;;11.70;10.50;;;;;;;;;;6247691;22;20023;-81
2023/01/26 18:01:07;;;;;;;10.05;7.95;;;;;;;;;;6282037;22;20012;-82
2023/01/26 18:03:35;;;;;;;17.65;11.15;;;;;;;;;;6293168;22;20474;-81
2023/01/26 18:06:05;;;;;;;12.85;10.50;;;;;;;;;;6296548;22;20015;-79
2023/01/26 18:08:37;;;;;;;14.63;10.25;;;;;;;;;;6285415;22;20037;-79
2023/01/26 18:11:08;;;;;;;14.88;11.45;;;;;;;;;;6286777;22;20321;-80
2023/01/26 18:13:38;;;;;;;16.45;12.20;;;;;;;;;;6283129;22;20019;-80
2023/01/26 18:16:06;;;;;;;10.45;9.20;;;;;;;;;;6243986;22;20020;-80
2023/01/26 18:18:34;;;;;;;11.95;10.10;;;;;;;;;;6273030;22;20023;-79
2023/01/26 18:21:10;;;;;;;10.90;8.88;;;;;;;;;;6269328;22;20015;-80
2023/01/26 18:23:47;;;;;;;19.27;11.93;;;;;;;;;;6273298;22;20479;-80
2023/01/26 18:26:16;;;;;;;14.00;11.10;;;;;;;;;;6243465;22;20325;-80
2023/01/26 18:28:44;;;;;;;14.85;9.60;;;;;;;;;;6271209;22;20012;-79
2023/01/26 18:31:12;;;;;;;11.52;8.23;;;;;;;;;;6268261;22;20026;-81
2023/01/26 18:33:40;;;;;;;14.07;10.73;;;;;;;;;;6267291;22;20522;-82
2023/01/26 18:36:10;;;;;;;12.63;9.48;;;;;;;;;;6264159;22;20016;-82
2023/01/26 18:38:42;;;;;;;13.48;9.43;;;;;;;;;;6265567;22;20034;-82
2023/01/26 18:41:12;;;;;;;13.77;10.05;;;;;;;;;;6263500;22;20027;-81
2023/01/26 18:43:39;;;;;;;12.20;8.88;;;;;;;;;;6262373;22;20043;-82
2023/01/26 18:46:10;;;;;;;12.40;9.68;;;;;;;;;;6263496;22;20030;-82
2023/01/26 18:48:40;;;;;;;11.77;8.00;;;;;;;;;;6275607;22;20015;-82
2023/01/26 18:51:10;;;;;;;11.32;8.95;;;;;;;;;;6262120;22;20024;-82
2023/01/26 18:53:38;;;;;;;11.20;8.80;;;;;;;;;;6262725;22;20027;-81
2023/01/26 18:56:08;;;;;;;10.57;8.30;;;;;;;;;;6266037;22;20019;-82
2023/01/26 18:58:37;;;;;;;12.50;9.07;;;;;;;;;;6238474;22;20026;-82
2023/01/26 19:01:08;;;;;;;12.05;10.02;;;;;;;;;;6272868;22;20020;-81
2023/01/26 19:03:38;;;;;;;9.90;8.57;;;;;;;;;;6272949;22;20020;-80
2023/01/26 19:06:08;;;;;;;11.50;8.95;;;;;;;;;;6262465;22;20020;-81
2023/01/26 19:08:36;;;;;;;13.05;10.00;;;;;;;;;;6237411;22;20016;-80
2023/01/26 19:11:04;;;;;;;11.75;8.35;;;;;;;;;;6263698;22;20023;-81
2023/01/26 19:13:31;;;;;;;10.52;9.23;;;;;;;;;;6264141;22;20023;-81
2023/01/26 19:16:02;;;;;;;10.85;9.18;;;;;;;;;;6237360;22;20031;-81
2023/01/26 19:18:32;;;;;;;12.60;7.90;;;;;;;;;;6265034;22;20024;-81
2023/01/26 19:21:01;;;;;;;11.35;8.35;;;;;;;;;;6264333;22;20030;-81
2023/01/26 19:23:31;;;;;;;13.55;8.88;;;;;;;;;;6239693;22;20030;-81
2023/01/26 19:25:58;;;;;;;10.32;7.88;;;;;;;;;;6265232;22;20501;-81
2023/01/26 19:28:25;;;;;;;12.05;7.10;;;;;;;;;;6266916;22;20034;-81
2023/01/26 19:31:03;;;;;;;12.35;6.97;;;;;;;;;;6267929;22;20023;-81
2023/01/26 19:33:32;;;;;;;9.60;7.97;;;;;;;;;;6264104;22;20034;-81
2023/01/26 19:36:04;;;;;;;14.40;8.18;;;;;;;;;;6265097;22;20016;-81
2023/01/26 19:38:32;;;;;;;10.50;7.85;;;;;;;;;;6265496;22;20023;-81
2023/01/26 19:41:01;;;;;;;10.77;7.88;;;;;;;;;;6265117;22;20026;-81
2023/01/26 19:43:31;;;;;;;9.13;6.70;;;;;;;;;;6239499;22;20045;-81
2023/01/26 19:45:58;;;;;;;13.15;8.48;;;;;;;;;;6265450;22;20740;-81
2023/01/26 19:48:27;;;;;;;10.27;9.23;;;;;;;;;;6239519;22;20035;-81
2023/01/26 19:51:01;;;;;;;14.77;10.05;;;;;;;;;;6265853;22;20474;-82
2023/01/26 19:53:29;;;;;;;9.15;8.20;;;;;;;;;;6276317;22;20062;-81
2023/01/26 19:55:58;;;;;;;11.68;8.05;;;;;;;;;;6268395;22;20514;-81
2023/01/26 19:58:26;;;;;;;11.20;9.40;;;;;;;;;;6277031;22;20023;-81
2023/01/26 20:01:00;;;;;;;13.20;9.82;;;;;;;;;;6264148;22;20553;-81
2023/01/26 20:03:31;;;;;;;10.23;8.02;;;;;;;;;;6239114;22;20019;-81
2023/01/26 20:05:58;;;;;;;9.82;7.70;;;;;;;;;;6266094;22;20012;-81
2023/01/26 20:08:26;;;;;;;14.02;9.13;;;;;;;;;;6274701;22;20021;-81
2023/01/26 20:10:54;;;;;;;13.65;7.93;;;;;;;;;;6266059;22;20022;-81
2023/01/26 20:13:21;;;;;;;8.63;6.95;;;;;;;;;;6266070;22;20026;-81
2023/01/26 20:15:48;;;;;;;9.50;7.70;;;;;;;;;;6262953;22;20355;-81
2023/01/26 20:18:16;;;;;;;9.27;7.50;;;;;;;;;;6262600;22;20031;-81
2023/01/26 20:20:48;;;;;;;11.98;8.48;;;;;;;;;;6272902;22;20448;-81
2023/01/26 20:23:16;;;;;;;10.00;7.30;;;;;;;;;;6264907;22;20015;-81
2023/01/26 20:25:43;;;;;;;13.20;7.63;;;;;;;;;;6238777;22;20016;-81
2023/01/26 20:28:11;;;;;;;9.73;7.05;;;;;;;;;;6265351;22;20384;-81
2023/01/26 20:30:40;;;;;;;11.15;7.22;;;;;;;;;;6266066;22;20012;-81
2023/01/26 20:33:08;;;;;;;10.88;7.57;;;;;;;;;;6263168;22;20019;-81
2023/01/26 20:35:35;;;;;;;14.18;8.15;;;;;;;;;;6263825;22;20023;-81
2023/01/26 20:38:06;;;;;;;9.70;7.00;;;;;;;;;;6264984;22;20031;-81
2023/01/26 20:40:33;;;;;;;8.60;6.95;;;;;;;;;;6274710;22;20012;-81
2023/01/26 20:43:01;;;;;;;9.63;7.00;;;;;;;;;;6266315;22;20015;-81
2023/01/26 20:45:28;;;;;;;12.48;9.05;;;;;;;;;;6276287;22;20498;-81
2023/01/26 20:47:58;;;;;;;9.30;7.75;;;;;;;;;;6263555;22;20015;-81
2023/01/26 20:50:25;;;;;;;14.82;8.32;;;;;;;;;;6266670;22;20016;-81
2023/01/26 20:52:52;;;;;;;10.20;8.05;;;;;;;;;;6265673;22;20023;-81
2023/01/26 20:55:21;;;;;;;9.63;6.82;;;;;;;;;;6264112;22;20253;-81
2023/01/26 20:57:51;;;;;;;9.82;7.18;;;;;;;;;;6237935;22;20430;-81
2023/01/26 21:00:21;;;;;;;9.80;8.27;;;;;;;;;;6264496;22;20016;-82
2023/01/26 21:02:51;;;;;;;15.77;9.70;;;;;;;;;;6266182;22;20030;-82
2023/01/26 21:05:19;;;;;;;15.00;9.85;;;;;;;;;;6264752;22;20035;-79
2023/01/26 21:07:48;;;;;;;14.35;8.13;;;;;;;;;;6265148;22;20034;-81
2023/01/26 21:10:16;;;;;;;9.57;7.18;;;;;;;;;;6238075;22;20471;-81
2023/01/26 21:12:50;;;;;;;12.85;9.35;;;;;;;;;;6267616;22;20026;-81
2023/01/26 21:15:18;;;;;;;13.57;10.13;;;;;;;;;;6266016;22;20548;-81
2023/01/26 21:17:47;;;;;;;15.55;10.38;;;;;;;;;;6265577;22;20016;-81
2023/01/26 21:20:15;;;;;;;11.93;9.65;;;;;;;;;;6275406;22;20360;-81
2023/01/26 21:22:42;;;;;;;15.68;8.77;;;;;;;;;;6263379;22;20015;-81
2023/01/26 21:25:10;;;;;;;10.40;8.02;;;;;;;;;;6265604;22;20023;-81
2023/01/26 21:27:37;;;;;;;11.88;8.93;;;;;;;;;;6263039;22;20026;-81
2023/01/26 21:30:10;;;;;;;10.68;8.50;;;;;;;;;;6262883;22;20498;-81
2023/01/26 21:32:37;;;;;;;12.50;8.90;;;;;;;;;;6237848;22;20019;-81
2023/01/26 21:35:05;;;;;;;12.23;8.88;;;;;;;;;;6264081;22;20348;-81
2023/01/26 21:37:35;;;;;;;13.57;8.23;;;;;;;;;;6265133;22;20027;-81
2023/01/26 21:40:03;;;;;;;11.50;9.18;;;;;;;;;;6272686;22;20012;-81
2023/01/26 21:42:34;;;;;;;10.15;7.97;;;;;;;;;;6268215;22;20024;-80
2023/01/26 21:48:26;;;;;;;13.55;10.27;;;;;;;;;;6284310;22;20016;-81
2023/01/26 21:53:16;;;;;;;10.77;9.05;;;;;;;;;;6272856;22;20263;-80
2023/01/26 21:55:43;;;;;;;14.88;9.75;;;;;;;;;;6274564;22;20011;-81
2023/01/26 22:01:04;;;;;;;10.77;9.07;;;;;;;;;;6281563;22;20432;-80
2023/01/26 22:03:33;;;;;;;10.95;8.55;;;;;;;;;;6269166;22;20012;-84
2023/01/26 22:06:03;;;;;;;11.68;9.02;;;;;;;;;;6216129;23;20016;-84
2023/01/26 22:08:32;;;;;;;12.77;8.38;;;;;;;;;;6239323;23;20031;-84
2023/01/26 22:11:00;;;;;;;15.10;10.38;;;;;;;;;;6238636;23;20023;-84
2023/01/26 22:13:27;;;;;;;14.45;9.45;;;;;;;;;;6241317;22;20019;-84
2023/01/26 22:15:54;;;;;;;10.90;9.55;;;;;;;;;;6240059;23;20016;-84
2023/01/26 22:18:24;;;;;;;11.90;10.35;;;;;;;;;;6240869;23;20012;-84